sensor_id;sensor_type;location;lat;lon;timestamp;pressure;altitude;pressure_sealevel;temperature
74321;BMP280;62738;45.772;4.804;2022-11-12T00:00:49;101194.75;;;11.89
74321;BMP280;62738;45.772;4.804;2022-11-12T00:03:16;101195.91;;;11.94
74321;BMP280;62738;45.772;4.804;2022-11-12T00:05:44;101195.34;;;12.09
74321;BMP280;62738;45.772;4.804;2022-11-12T00:08:11;101190.34;;;11.94
74321;BMP280;62738;45.772;4.804;2022-11-12T00:10:37;101184.63;;;12.13
74321;BMP280;62738;45.772;4.804;2022-11-12T00:13:04;101187.94;;;12.11
74321;BMP280;62738;45.772;4.804;2022-11-12T00:15:30;101181.03;;;12.25
74321;BMP280;62738;45.772;4.804;2022-11-12T00:17:57;101187.66;;;12.02
74321;BMP280;62738;45.772;4.804;2022-11-12T00:20:23;101182.88;;;12.23
74321;BMP280;62738;45.772;4.804;2022-11-12T00:22:50;101184.53;;;12.39
74321;BMP280;62738;45.772;4.804;2022-11-12T00:25:16;101187.13;;;12.37
74321;BMP280;62738;45.772;4.804;2022-11-12T00:27:43;101174.72;;;12.25
74321;BMP280;62738;45.772;4.804;2022-11-12T00:30:10;101187.78;;;12.30
74321;BMP280;62738;45.772;4.804;2022-11-12T00:32:37;101192.50;;;12.22
74321;BMP280;62738;45.772;4.804;2022-11-12T00:35:05;101187.34;;;12.26
74321;BMP280;62738;45.772;4.804;2022-11-12T00:37:36;101185.28;;;12.06
74321;BMP280;62738;45.772;4.804;2022-11-12T00:40:03;101186.13;;;12.14
74321;BMP280;62738;45.772;4.804;2022-11-12T00:42:30;101174.38;;;12.08
74321;BMP280;62738;45.772;4.804;2022-11-12T00:44:56;101174.22;;;11.79
74321;BMP280;62738;45.772;4.804;2022-11-12T00:47:23;101173.81;;;11.88
74321;BMP280;62738;45.772;4.804;2022-11-12T00:49:49;101174.06;;;11.98
74321;BMP280;62738;45.772;4.804;2022-11-12T00:52:16;101181.25;;;11.93
74321;BMP280;62738;45.772;4.804;2022-11-12T00:54:43;101181.06;;;11.78
74321;BMP280;62738;45.772;4.804;2022-11-12T00:57:09;101175.41;;;11.84
74321;BMP280;62738;45.772;4.804;2022-11-12T00:59:36;101176.03;;;11.90
74321;BMP280;62738;45.772;4.804;2022-11-12T01:02:03;101178.03;;;12.03
74321;BMP280;62738;45.772;4.804;2022-11-12T01:04:29;101183.84;;;11.78
74321;BMP280;62738;45.772;4.804;2022-11-12T01:06:56;101185.88;;;11.78
74321;BMP280;62738;45.772;4.804;2022-11-12T01:09:22;101181.78;;;11.92
74321;BMP280;62738;45.772;4.804;2022-11-12T01:11:49;101185.34;;;11.79
74321;BMP280;62738;45.772;4.804;2022-11-12T01:14:16;101184.94;;;11.88
74321;BMP280;62738;45.772;4.804;2022-11-12T01:16:42;101177.97;;;11.82
74321;BMP280;62738;45.772;4.804;2022-11-12T01:19:10;101177.75;;;11.80
74321;BMP280;62738;45.772;4.804;2022-11-12T01:21:40;101177.34;;;11.49
74321;BMP280;62738;45.772;4.804;2022-11-12T01:24:08;101183.25;;;11.59
74321;BMP280;62738;45.772;4.804;2022-11-12T01:26:34;101174.06;;;11.51
74321;BMP280;62738;45.772;4.804;2022-11-12T01:29:01;101177.13;;;11.47
74321;BMP280;62738;45.772;4.804;2022-11-12T01:31:34;101176.38;;;11.47
74321;BMP280;62738;45.772;4.804;2022-11-12T01:34:07;101173.16;;;11.69
74321;BMP280;62738;45.772;4.804;2022-11-12T01:36:36;101165.59;;;11.57
74321;BMP280;62738;45.772;4.804;2022-11-12T01:39:07;101167.84;;;11.45
74321;BMP280;62738;45.772;4.804;2022-11-12T01:41:37;101163.13;;;11.53
74321;BMP280;62738;45.772;4.804;2022-11-12T01:44:07;101157.22;;;11.30
74321;BMP280;62738;45.772;4.804;2022-11-12T01:46:36;101158.84;;;11.39
74321;BMP280;62738;45.772;4.804;2022-11-12T01:49:11;101155.19;;;11.70
74321;BMP280;62738;45.772;4.804;2022-11-12T01:51:43;101153.16;;;11.71
74321;BMP280;62738;45.772;4.804;2022-11-12T01:54:15;101145.44;;;11.90
74321;BMP280;62738;45.772;4.804;2022-11-12T01:56:43;101149.00;;;12.11
74321;BMP280;62738;45.772;4.804;2022-11-12T01:59:40;101150.31;;;11.97
74321;BMP280;62738;45.772;4.804;2022-11-12T02:02:08;101144.59;;;11.82
74321;BMP280;62738;45.772;4.804;2022-11-12T02:04:36;101148.00;;;11.75
74321;BMP280;62738;45.772;4.804;2022-11-12T02:07:05;101150.06;;;11.87
74321;BMP280;62738;45.772;4.804;2022-11-12T02:09:32;101135.09;;;11.64
74321;BMP280;62738;45.772;4.804;2022-11-12T02:11:59;101133.00;;;11.57
74321;BMP280;62738;45.772;4.804;2022-11-12T02:14:26;101131.66;;;11.71
74321;BMP280;62738;45.772;4.804;2022-11-12T02:16:53;101125.03;;;11.61
74321;BMP280;62738;45.772;4.804;2022-11-12T02:19:20;101131.28;;;11.54
74321;BMP280;62738;45.772;4.804;2022-11-12T02:21:46;101130.63;;;11.35
74321;BMP280;62738;45.772;4.804;2022-11-12T02:26:43;101134.50;;;11.45
74321;BMP280;62738;45.772;4.804;2022-11-12T02:29:11;101137.06;;;11.17
74321;BMP280;62738;45.772;4.804;2022-11-12T02:31:37;101136.63;;;11.39
74321;BMP280;62738;45.772;4.804;2022-11-12T02:34:04;101124.34;;;11.34
74321;BMP280;62738;45.772;4.804;2022-11-12T02:36:30;101129.38;;;11.36
74321;BMP280;62738;45.772;4.804;2022-11-12T02:38:57;101135.88;;;11.38
74321;BMP280;62738;45.772;4.804;2022-11-12T02:41:24;101128.94;;;11.45
74321;BMP280;62738;45.772;4.804;2022-11-12T02:43:50;101126.00;;;11.77
74321;BMP280;62738;45.772;4.804;2022-11-12T02:46:17;101117.69;;;11.98
74321;BMP280;62738;45.772;4.804;2022-11-12T02:48:43;101118.09;;;11.81
74321;BMP280;62738;45.772;4.804;2022-11-12T02:51:10;101115.41;;;11.62
74321;BMP280;62738;45.772;4.804;2022-11-12T02:53:37;101122.47;;;11.63
74321;BMP280;62738;45.772;4.804;2022-11-12T02:56:03;101118.41;;;11.77
74321;BMP280;62738;45.772;4.804;2022-11-12T02:58:30;101105.56;;;11.87
74321;BMP280;62738;45.772;4.804;2022-11-12T03:00:57;101098.28;;;11.84
74321;BMP280;62738;45.772;4.804;2022-11-12T03:03:24;101098.84;;;11.70
74321;BMP280;62738;45.772;4.804;2022-11-12T03:05:58;101100.13;;;11.82
74321;BMP280;62738;45.772;4.804;2022-11-12T03:08:26;101100.03;;;11.74
74321;BMP280;62738;45.772;4.804;2022-11-12T03:10:53;101102.50;;;11.99
74321;BMP280;62738;45.772;4.804;2022-11-12T03:13:20;101103.63;;;11.82
74321;BMP280;62738;45.772;4.804;2022-11-12T03:15:46;101103.75;;;11.77
74321;BMP280;62738;45.772;4.804;2022-11-12T03:18:13;101104.28;;;11.62
74321;BMP280;62738;45.772;4.804;2022-11-12T03:20:39;101103.75;;;11.77
74321;BMP280;62738;45.772;4.804;2022-11-12T03:23:08;101096.84;;;11.57
74321;BMP280;62738;45.772;4.804;2022-11-12T03:25:36;101093.97;;;11.49
74321;BMP280;62738;45.772;4.804;2022-11-12T03:28:08;101091.28;;;11.57
74321;BMP280;62738;45.772;4.804;2022-11-12T03:30:37;101077.78;;;11.61
74321;BMP280;62738;45.772;4.804;2022-11-12T03:33:05;101086.97;;;11.69
74321;BMP280;62738;45.772;4.804;2022-11-12T03:35:32;101079.16;;;11.68
74321;BMP280;62738;45.772;4.804;2022-11-12T03:38:00;101081.94;;;11.81
74321;BMP280;62738;45.772;4.804;2022-11-12T03:40:27;101078.28;;;11.86
74321;BMP280;62738;45.772;4.804;2022-11-12T03:42:54;101097.34;;;11.82
74321;BMP280;62738;45.772;4.804;2022-11-12T03:45:23;101090.19;;;11.60
74321;BMP280;62738;45.772;4.804;2022-11-12T03:47:52;101092.72;;;11.84
74321;BMP280;62738;45.772;4.804;2022-11-12T03:50:21;101086.84;;;11.88
74321;BMP280;62738;45.772;4.804;2022-11-12T03:52:51;101082.91;;;11.70
74321;BMP280;62738;45.772;4.804;2022-11-12T03:55:19;101089.31;;;11.78
74321;BMP280;62738;45.772;4.804;2022-11-12T03:57:48;101080.13;;;11.70
74321;BMP280;62738;45.772;4.804;2022-11-12T04:00:15;101084.63;;;11.60
74321;BMP280;62738;45.772;4.804;2022-11-12T04:02:42;101083.34;;;11.61
74321;BMP280;62738;45.772;4.804;2022-11-12T04:05:08;101087.41;;;11.73
74321;BMP280;62738;45.772;4.804;2022-11-12T04:07:57;101094.25;;;11.72
74321;BMP280;62738;45.772;4.804;2022-11-12T04:10:43;101087.41;;;11.73
74321;BMP280;62738;45.772;4.804;2022-11-12T04:13:10;101097.44;;;11.76
74321;BMP280;62738;45.772;4.804;2022-11-12T04:16:09;101094.44;;;11.87
74321;BMP280;62738;45.772;4.804;2022-11-12T04:18:56;101100.31;;;12.05
74321;BMP280;62738;45.772;4.804;2022-11-12T04:21:44;101096.41;;;11.66
74321;BMP280;62738;45.772;4.804;2022-11-12T04:27:14;101096.81;;;11.70
74321;BMP280;62738;45.772;4.804;2022-11-12T04:29:41;101092.44;;;11.62
74321;BMP280;62738;45.772;4.804;2022-11-12T04:32:27;101079.16;;;12.02
74321;BMP280;62738;45.772;4.804;2022-11-12T04:34:54;101082.03;;;11.75
74321;BMP280;62738;45.772;4.804;2022-11-12T04:37:23;101084.94;;;11.70
74321;BMP280;62738;45.772;4.804;2022-11-12T04:39:51;101088.75;;;11.59
74321;BMP280;62738;45.772;4.804;2022-11-12T04:42:18;101087.41;;;11.73
74321;BMP280;62738;45.772;4.804;2022-11-12T04:45:08;101087.16;;;11.84
74321;BMP280;62738;45.772;4.804;2022-11-12T04:47:40;101083.19;;;11.59
74321;BMP280;62738;45.772;4.804;2022-11-12T04:50:14;101082.59;;;11.74
74321;BMP280;62738;45.772;4.804;2022-11-12T04:52:41;101084.88;;;11.49
74321;BMP280;62738;45.772;4.804;2022-11-12T04:55:08;101086.72;;;11.33
74321;BMP280;62738;45.772;4.804;2022-11-12T04:57:36;101084.28;;;11.30
74321;BMP280;62738;45.772;4.804;2022-11-12T05:00:04;101080.22;;;11.18
74321;BMP280;62738;45.772;4.804;2022-11-12T05:02:31;101077.78;;;11.14
74321;BMP280;62738;45.772;4.804;2022-11-12T05:04:57;101084.38;;;11.11
74321;BMP280;62738;45.772;4.804;2022-11-12T05:07:24;101077.78;;;11.14
74321;BMP280;62738;45.772;4.804;2022-11-12T05:09:50;101078.50;;;11.15
74321;BMP280;62738;45.772;4.804;2022-11-12T05:12:17;101073.91;;;11.04
74321;BMP280;62738;45.772;4.804;2022-11-12T05:14:43;101075.72;;;10.88
74321;BMP280;62738;45.772;4.804;2022-11-12T05:17:10;101068.28;;;10.96
74321;BMP280;62738;45.772;4.804;2022-11-12T05:19:36;101075.72;;;11.01
74321;BMP280;62738;45.772;4.804;2022-11-12T05:22:03;101077.88;;;10.95
74321;BMP280;62738;45.772;4.804;2022-11-12T05:24:52;101079.38;;;10.96
74321;BMP280;62738;45.772;4.804;2022-11-12T05:27:20;101073.28;;;11.11
74321;BMP280;62738;45.772;4.804;2022-11-12T05:29:46;101079.88;;;11.08
74321;BMP280;62738;45.772;4.804;2022-11-12T05:32:14;101082.78;;;10.89
74321;BMP280;62738;45.772;4.804;2022-11-12T05:34:41;101069.78;;;10.97
74321;BMP280;62738;45.772;4.804;2022-11-12T05:37:09;101077.41;;;11.44
74321;BMP280;62738;45.772;4.804;2022-11-12T05:39:36;101081.25;;;11.41
74321;BMP280;62738;45.772;4.804;2022-11-12T05:42:04;101079.91;;;11.21
74321;BMP280;62738;45.772;4.804;2022-11-12T05:44:38;101082.13;;;11.36
74321;BMP280;62738;45.772;4.804;2022-11-12T05:47:05;101085.88;;;10.86
74321;BMP280;62738;45.772;4.804;2022-11-12T05:49:31;101083.44;;;10.95
74321;BMP280;62738;45.772;4.804;2022-11-12T05:51:58;101076.88;;;10.80
74321;BMP280;62738;45.772;4.804;2022-11-12T05:54:24;101081.59;;;10.85
74321;BMP280;62738;45.772;4.804;2022-11-12T05:56:51;101087.03;;;11.03
74321;BMP280;62738;45.772;4.804;2022-11-12T05:59:18;101084.34;;;10.72
74321;BMP280;62738;45.772;4.804;2022-11-12T06:01:45;101077.66;;;10.67
74321;BMP280;62738;45.772;4.804;2022-11-12T06:04:13;101080.13;;;10.97
74321;BMP280;62738;45.772;4.804;2022-11-12T06:06:40;101077.88;;;10.95
74321;BMP280;62738;45.772;4.804;2022-11-12T06:09:08;101076.69;;;11.04
74321;BMP280;62738;45.772;4.804;2022-11-12T06:11:35;101081.16;;;11.07
74321;BMP280;62738;45.772;4.804;2022-11-12T06:14:03;101086.06;;;11.01
74321;BMP280;62738;45.772;4.804;2022-11-12T06:16:31;101084.59;;;11.13
74321;BMP280;62738;45.772;4.804;2022-11-12T06:18:58;101075.84;;;10.96
74321;BMP280;62738;45.772;4.804;2022-11-12T06:21:24;101077.00;;;10.87
74321;BMP280;62738;45.772;4.804;2022-11-12T06:23:56;101083.84;;;10.86
74321;BMP280;62738;45.772;4.804;2022-11-12T06:26:24;101079.00;;;11.00
74321;BMP280;62738;45.772;4.804;2022-11-12T06:28:51;101080.22;;;11.18
74321;BMP280;62738;45.772;4.804;2022-11-12T06:31:18;101083.81;;;10.99
74321;BMP280;62738;45.772;4.804;2022-11-12T06:33:46;101083.09;;;10.86
74321;BMP280;62738;45.772;4.804;2022-11-12T06:36:14;101087.19;;;10.98
74321;BMP280;62738;45.772;4.804;2022-11-12T06:38:41;101093.06;;;11.21
74321;BMP280;62738;45.772;4.804;2022-11-12T06:41:09;101091.75;;;11.08
74321;BMP280;62738;45.772;4.804;2022-11-12T06:43:36;101098.16;;;11.03
74321;BMP280;62738;45.772;4.804;2022-11-12T06:46:14;101099.09;;;10.80
74321;BMP280;62738;45.772;4.804;2022-11-12T06:48:41;101094.41;;;10.88
74321;BMP280;62738;45.772;4.804;2022-11-12T06:51:17;101097.38;;;10.77
74321;BMP280;62738;45.772;4.804;2022-11-12T06:53:44;101102.63;;;10.80
74321;BMP280;62738;45.772;4.804;2022-11-12T06:56:12;101106.88;;;10.68
74321;BMP280;62738;45.772;4.804;2022-11-12T06:58:38;101102.16;;;10.76
74321;BMP280;62738;45.772;4.804;2022-11-12T07:01:14;101099.00;;;10.85
74321;BMP280;62738;45.772;4.804;2022-11-12T07:03:41;101104.25;;;11.02
74321;BMP280;62738;45.772;4.804;2022-11-12T07:06:14;101101.59;;;10.96
74321;BMP280;62738;45.772;4.804;2022-11-12T07:08:43;101102.41;;;10.78
74321;BMP280;62738;45.772;4.804;2022-11-12T07:11:10;101106.28;;;11.15
74321;BMP280;62738;45.772;4.804;2022-11-12T07:13:37;101108.94;;;10.94
74321;BMP280;62738;45.772;4.804;2022-11-12T07:16:05;101116.09;;;11.02
74321;BMP280;62738;45.772;4.804;2022-11-12T07:18:33;101105.56;;;11.27
74321;BMP280;62738;45.772;4.804;2022-11-12T07:21:02;101106.78;;;11.00
74321;BMP280;62738;45.772;4.804;2022-11-12T07:23:31;101119.53;;;10.95
74321;BMP280;62738;45.772;4.804;2022-11-12T07:26:06;101124.50;;;10.84
74321;BMP280;62738;45.772;4.804;2022-11-12T07:28:33;101124.09;;;10.80
74321;BMP280;62738;45.772;4.804;2022-11-12T07:31:02;101117.91;;;11.00
74321;BMP280;62738;45.772;4.804;2022-11-12T07:33:30;101119.53;;;11.08
74321;BMP280;62738;45.772;4.804;2022-11-12T07:38:28;101119.41;;;11.01
74321;BMP280;62738;45.772;4.804;2022-11-12T07:41:10;101120.09;;;11.20
74321;BMP280;62738;45.772;4.804;2022-11-12T07:43:38;101121.97;;;10.86
74321;BMP280;62738;45.772;4.804;2022-11-12T07:46:09;101118.47;;;10.98
74321;BMP280;62738;45.772;4.804;2022-11-12T07:48:37;101123.16;;;11.03
74321;BMP280;62738;45.772;4.804;2022-11-12T07:51:14;101117.84;;;11.19
74321;BMP280;62738;45.772;4.804;2022-11-12T07:53:43;101125.63;;;11.20
74321;BMP280;62738;45.772;4.804;2022-11-12T07:56:12;101123.50;;;11.13
74321;BMP280;62738;45.772;4.804;2022-11-12T07:58:39;101126.69;;;11.04
74321;BMP280;62738;45.772;4.804;2022-11-12T08:01:22;101134.16;;;10.96
74321;BMP280;62738;45.772;4.804;2022-11-12T08:03:48;101134.69;;;11.07
74321;BMP280;62738;45.772;4.804;2022-11-12T08:06:15;101132.75;;;10.89
74321;BMP280;62738;45.772;4.804;2022-11-12T08:08:42;101142.38;;;11.01
74321;BMP280;62738;45.772;4.804;2022-11-12T08:11:08;101142.78;;;10.79
74321;BMP280;62738;45.772;4.804;2022-11-12T08:13:35;101137.91;;;11.12
74321;BMP280;62738;45.772;4.804;2022-11-12T08:16:01;101144.66;;;10.71
74321;BMP280;62738;45.772;4.804;2022-11-12T08:18:29;101137.13;;;10.85
74321;BMP280;62738;45.772;4.804;2022-11-12T08:21:01;101144.91;;;10.99
74321;BMP280;62738;45.772;4.804;2022-11-12T08:23:28;101146.44;;;10.87
74321;BMP280;62738;45.772;4.804;2022-11-12T08:25:59;101140.47;;;10.96
74321;BMP280;62738;45.772;4.804;2022-11-12T08:28:31;101147.34;;;10.77
74321;BMP280;62738;45.772;4.804;2022-11-12T08:31:02;101138.13;;;11.14
74321;BMP280;62738;45.772;4.804;2022-11-12T08:33:30;101137.91;;;11.25
74321;BMP280;62738;45.772;4.804;2022-11-12T08:35:56;101139.84;;;11.56
74321;BMP280;62738;45.772;4.804;2022-11-12T08:38:23;101135.13;;;11.25
74321;BMP280;62738;45.772;4.804;2022-11-12T08:40:50;101143.34;;;10.91
74321;BMP280;62738;45.772;4.804;2022-11-12T08:43:16;101128.06;;;11.10
74321;BMP280;62738;45.772;4.804;2022-11-12T08:45:43;101131.16;;;11.46
74321;BMP280;62738;45.772;4.804;2022-11-12T08:48:12;101132.53;;;11.66
74321;BMP280;62738;45.772;4.804;2022-11-12T08:50:42;101128.50;;;11.54
74321;BMP280;62738;45.772;4.804;2022-11-12T08:53:11;101129.63;;;11.72
74321;BMP280;62738;45.772;4.804;2022-11-12T08:55:38;101128.28;;;11.99
74321;BMP280;62738;45.772;4.804;2022-11-12T08:58:05;101138.28;;;12.15
74321;BMP280;62738;45.772;4.804;2022-11-12T09:00:38;101125.59;;;12.27
74321;BMP280;62738;45.772;4.804;2022-11-12T09:03:06;101119.88;;;12.33
74321;BMP280;62738;45.772;4.804;2022-11-12T09:05:34;101121.31;;;12.47
74321;BMP280;62738;45.772;4.804;2022-11-12T09:08:06;101118.81;;;12.15
74321;BMP280;62738;45.772;4.804;2022-11-12T09:10:34;101123.84;;;12.17
74321;BMP280;62738;45.772;4.804;2022-11-12T09:13:01;101124.91;;;12.34
74321;BMP280;62738;45.772;4.804;2022-11-12T09:15:27;101124.13;;;12.47
74321;BMP280;62738;45.772;4.804;2022-11-12T09:18:09;101124.59;;;12.59
74321;BMP280;62738;45.772;4.804;2022-11-12T09:20:36;101120.44;;;12.52
74321;BMP280;62738;45.772;4.804;2022-11-12T09:23:09;101124.59;;;12.59
74321;BMP280;62738;45.772;4.804;2022-11-12T09:25:36;101120.94;;;12.43
74321;BMP280;62738;45.772;4.804;2022-11-12T09:28:07;101121.06;;;12.58
74321;BMP280;62738;45.772;4.804;2022-11-12T09:30:35;101126.63;;;12.58
74321;BMP280;62738;45.772;4.804;2022-11-12T09:33:01;101123.75;;;12.71
74321;BMP280;62738;45.772;4.804;2022-11-12T09:35:28;101117.69;;;12.81
74321;BMP280;62738;45.772;4.804;2022-11-12T09:37:56;101116.97;;;12.88
74321;BMP280;62738;45.772;4.804;2022-11-12T09:40:34;101114.78;;;12.94
74321;BMP280;62738;45.772;4.804;2022-11-12T09:43:10;101117.50;;;13.07
74321;BMP280;62738;45.772;4.804;2022-11-12T09:45:40;101119.34;;;13.04
74321;BMP280;62738;45.772;4.804;2022-11-12T09:48:33;101116.41;;;13.10
74321;BMP280;62738;45.772;4.804;2022-11-12T09:51:06;101118.31;;;13.23
74321;BMP280;62738;45.772;4.804;2022-11-12T09:53:50;101130.16;;;13.15
74321;BMP280;62738;45.772;4.804;2022-11-12T09:56:20;101122.34;;;13.06
74321;BMP280;62738;45.772;4.804;2022-11-12T09:58:48;101123.41;;;13.32
74321;BMP280;62738;45.772;4.804;2022-11-12T10:01:20;101121.81;;;13.51
74321;BMP280;62738;45.772;4.804;2022-11-12T10:06:39;101118.44;;;13.45
74321;BMP280;62738;45.772;4.804;2022-11-12T10:09:22;101117.47;;;13.35
74321;BMP280;62738;45.772;4.804;2022-11-12T10:12:09;101114.31;;;13.46
74321;BMP280;62738;45.772;4.804;2022-11-12T10:15:13;101115.91;;;13.78
74321;BMP280;62738;45.772;4.804;2022-11-12T10:18:11;101103.28;;;13.84
74321;BMP280;62738;45.772;4.804;2022-11-12T10:20:44;101110.59;;;14.10
74321;BMP280;62738;45.772;4.804;2022-11-12T10:23:21;101097.94;;;14.17
74321;BMP280;62738;45.772;4.804;2022-11-12T10:25:52;101100.53;;;14.15
74321;BMP280;62738;45.772;4.804;2022-11-12T10:31:12;101095.16;;;14.39
74321;BMP280;62738;45.772;4.804;2022-11-12T10:33:39;101085.13;;;14.21
74321;BMP280;62738;45.772;4.804;2022-11-12T10:36:26;101082.69;;;14.33
74321;BMP280;62738;45.772;4.804;2022-11-12T10:38:54;101084.34;;;14.51
74321;BMP280;62738;45.772;4.804;2022-11-12T10:41:38;101085.84;;;14.60
74321;BMP280;62738;45.772;4.804;2022-11-12T10:44:06;101081.41;;;15.12
74321;BMP280;62738;45.772;4.804;2022-11-12T10:46:38;101076.16;;;15.23
74321;BMP280;62738;45.772;4.804;2022-11-12T10:51:53;101073.66;;;14.95
74321;BMP280;62738;45.772;4.804;2022-11-12T10:54:35;101065.84;;;14.86
74321;BMP280;62738;45.772;4.804;2022-11-12T10:57:25;101067.81;;;15.08
74321;BMP280;62738;45.772;4.804;2022-11-12T11:00:07;101058.50;;;15.13
74321;BMP280;62738;45.772;4.804;2022-11-12T11:02:33;101056.47;;;15.06
74321;BMP280;62738;45.772;4.804;2022-11-12T11:05:26;101048.41;;;15.18
74321;BMP280;62738;45.772;4.804;2022-11-12T11:07:56;101048.53;;;15.27
74321;BMP280;62738;45.772;4.804;2022-11-12T11:10:29;101040.59;;;15.16
74321;BMP280;62738;45.772;4.804;2022-11-12T11:13:19;101036.28;;;15.23
74321;BMP280;62738;45.772;4.804;2022-11-12T11:16:03;101030.94;;;15.42
74321;BMP280;62738;45.772;4.804;2022-11-12T11:18:35;101032.41;;;15.43
74321;BMP280;62738;45.772;4.804;2022-11-12T11:29:27;101017.72;;;15.67
74321;BMP280;62738;45.772;4.804;2022-11-12T11:38:04;101014.34;;;15.69
74321;BMP280;62738;45.772;4.804;2022-11-12T11:46:30;101003.19;;;15.86
74321;BMP280;62738;45.772;4.804;2022-11-12T11:49:12;100999.03;;;15.95
74321;BMP280;62738;45.772;4.804;2022-11-12T11:55:04;100989.50;;;16.15
74321;BMP280;62738;45.772;4.804;2022-11-12T12:01:08;100983.69;;;16.38
74321;BMP280;62738;45.772;4.804;2022-11-12T12:03:48;100980.19;;;16.30
74321;BMP280;62738;45.772;4.804;2022-11-12T12:06:26;100978.06;;;16.20
74321;BMP280;62738;45.772;4.804;2022-11-12T12:09:22;100967.44;;;16.36
74321;BMP280;62738;45.772;4.804;2022-11-12T12:12:16;100964.22;;;16.40
74321;BMP280;62738;45.772;4.804;2022-11-12T12:15:14;100962.19;;;16.84
74321;BMP280;62738;45.772;4.804;2022-11-12T12:20:41;100943.94;;;16.49
74321;BMP280;62738;45.772;4.804;2022-11-12T12:23:24;100948.31;;;16.59
74321;BMP280;62738;45.772;4.804;2022-11-12T12:25:55;100944.16;;;16.78
74321;BMP280;62738;45.772;4.804;2022-11-12T12:28:36;100936.56;;;16.71
74321;BMP280;62738;45.772;4.804;2022-11-12T12:31:13;100940.38;;;16.65
74321;BMP280;62738;45.772;4.804;2022-11-12T12:33:49;100935.69;;;16.68
74321;BMP280;62738;45.772;4.804;2022-11-12T12:36:23;100940.16;;;16.54
74321;BMP280;62738;45.772;4.804;2022-11-12T12:39:13;100935.94;;;16.62
74321;BMP280;62738;45.772;4.804;2022-11-12T12:44:23;100923.28;;;16.44
74321;BMP280;62738;45.772;4.804;2022-11-12T12:47:12;100916.03;;;16.41
74321;BMP280;62738;45.772;4.804;2022-11-12T12:49:40;100911.59;;;16.38
74321;BMP280;62738;45.772;4.804;2022-11-12T12:52:11;100909.19;;;16.35
74321;BMP280;62738;45.772;4.804;2022-11-12T12:57:43;100895.22;;;16.17
74321;BMP280;62738;45.772;4.804;2022-11-12T13:00:28;100894.78;;;16.38
74321;BMP280;62738;45.772;4.804;2022-11-12T13:02:57;100893.38;;;16.30
74321;BMP280;62738;45.772;4.804;2022-11-12T13:05:35;100888.25;;;16.18
74321;BMP280;62738;45.772;4.804;2022-11-12T13:08:06;100890.25;;;16.26
74321;BMP280;62738;45.772;4.804;2022-11-12T13:15:54;100897.66;;;16.31
74321;BMP280;62738;45.772;4.804;2022-11-12T13:21:20;100878.50;;;16.54
74321;BMP280;62738;45.772;4.804;2022-11-12T13:23:52;100874.09;;;16.87
74321;BMP280;62738;45.772;4.804;2022-11-12T13:29:37;100865.00;;;16.60
74321;BMP280;62738;45.772;4.804;2022-11-12T13:40:25;100855.78;;;16.77
74321;BMP280;62738;45.772;4.804;2022-11-12T13:43:02;100849.03;;;16.89
74321;BMP280;62738;45.772;4.804;2022-11-12T13:45:31;100834.97;;;16.80
74321;BMP280;62738;45.772;4.804;2022-11-12T13:48:05;100839.84;;;16.79
74321;BMP280;62738;45.772;4.804;2022-11-12T13:50:32;100838.56;;;16.90
74321;BMP280;62738;45.772;4.804;2022-11-12T13:53:07;100844.06;;;16.97
74321;BMP280;62738;45.772;4.804;2022-11-12T13:55:35;100840.41;;;16.68
74321;BMP280;62738;45.772;4.804;2022-11-12T13:58:02;100836.75;;;16.75
74321;BMP280;62738;45.772;4.804;2022-11-12T14:00:28;100829.81;;;16.86
74321;BMP280;62738;45.772;4.804;2022-11-12T14:02:59;100836.81;;;16.94
74321;BMP280;62738;45.772;4.804;2022-11-12T14:05:28;100826.75;;;16.91
74321;BMP280;62738;45.772;4.804;2022-11-12T14:18:54;100824.66;;;17.28
74321;BMP280;62738;45.772;4.804;2022-11-12T14:21:24;100819.28;;;17.13
74321;BMP280;62738;45.772;4.804;2022-11-12T14:23:51;100821.09;;;17.08
74321;BMP280;62738;45.772;4.804;2022-11-12T14:26:38;100817.78;;;16.93
74321;BMP280;62738;45.772;4.804;2022-11-12T14:29:06;100808.38;;;17.17
74321;BMP280;62738;45.772;4.804;2022-11-12T14:31:32;100813.84;;;17.05
74321;BMP280;62738;45.772;4.804;2022-11-12T14:34:19;100803.94;;;17.04
74321;BMP280;62738;45.772;4.804;2022-11-12T14:36:46;100799.38;;;17.19
74321;BMP280;62738;45.772;4.804;2022-11-12T14:39:14;100798.19;;;17.02
74321;BMP280;62738;45.772;4.804;2022-11-12T14:41:41;100799.38;;;17.19
74321;BMP280;62738;45.772;4.804;2022-11-12T14:44:17;100796.38;;;16.97
74321;BMP280;62738;45.772;4.804;2022-11-12T14:46:46;100799.38;;;16.99
74321;BMP280;62738;45.772;4.804;2022-11-12T14:51:46;100795.03;;;16.89
74321;BMP280;62738;45.772;4.804;2022-11-12T14:54:24;100792.97;;;16.89
74321;BMP280;62738;45.772;4.804;2022-11-12T14:56:51;100792.75;;;17.04
74321;BMP280;62738;45.772;4.804;2022-11-12T14:59:18;100790.13;;;16.70
74321;BMP280;62738;45.772;4.804;2022-11-12T15:02:11;100780.38;;;16.81
74321;BMP280;62738;45.772;4.804;2022-11-12T15:05:02;100783.56;;;16.94
74321;BMP280;62738;45.772;4.804;2022-11-12T15:07:49;100780.69;;;16.75
74321;BMP280;62738;45.772;4.804;2022-11-12T15:10:37;100777.53;;;16.61
74321;BMP280;62738;45.772;4.804;2022-11-12T15:13:14;100778.91;;;16.70
74321;BMP280;62738;45.772;4.804;2022-11-12T15:15:55;100780.97;;;16.70
74321;BMP280;62738;45.772;4.804;2022-11-12T15:18:25;100778.78;;;16.87
74321;BMP280;62738;45.772;4.804;2022-11-12T15:23:51;100779.84;;;16.55
74321;BMP280;62738;45.772;4.804;2022-11-12T15:26:25;100772.19;;;16.56
74321;BMP280;62738;45.772;4.804;2022-11-12T15:29:00;100776.38;;;16.64
74321;BMP280;62738;45.772;4.804;2022-11-12T15:31:27;100763.94;;;16.58
74321;BMP280;62738;45.772;4.804;2022-11-12T15:34:24;100764.66;;;16.49
74321;BMP280;62738;45.772;4.804;2022-11-12T15:36:51;100762.41;;;16.38
74321;BMP280;62738;45.772;4.804;2022-11-12T15:39:18;100758.47;;;16.23
74321;BMP280;62738;45.772;4.804;2022-11-12T15:41:45;100756.94;;;16.13
74321;BMP280;62738;45.772;4.804;2022-11-12T15:44:12;100754.59;;;16.19
74321;BMP280;62738;45.772;4.804;2022-11-12T15:46:38;100757.22;;;16.07